Time;durP1;ratioP1;P1;durP2;ratioP2;P2;SDS_P1;SDS_P2;PMS_P1;PMS_P2;Temp;Humidity;BMP_temperature;BMP_pressure;BME280_temperature;BME280_humidity;BME280_pressure;Samples;Min_cycle;Max_cycle;Signal;HPM_P1;HPM_P2
2021/04/25 00:01:48;;;;;;;1.50;1.38;;;6.60;99.90;;;;;;4920091;28;20434;-79
2021/04/25 00:04:16;;;;;;;1.23;1.20;;;6.60;99.90;;;;;;4939586;28;20402;-79
2021/04/25 00:06:45;;;;;;;1.60;1.50;;;6.60;99.90;;;;;;4933578;28;20811;-79
2021/04/25 00:09:11;;;;;;;1.48;1.38;;;6.50;99.90;;;;;;4933707;28;20576;-79
2021/04/25 00:11:37;;;;;;;1.63;1.33;;;6.60;99.90;;;;;;4940172;28;20410;-79
2021/04/25 00:14:03;;;;;;;1.67;1.58;;;6.50;99.90;;;;;;4941641;28;20445;-79
2021/04/25 00:16:29;;;;;;;3.10;1.70;;;6.50;99.90;;;;;;4948237;28;20556;-78
2021/04/25 00:18:57;;;;;;;1.80;1.50;;;6.50;99.90;;;;;;4948993;28;20500;-78
2021/04/25 00:21:25;;;;;;;1.50;1.40;;;6.40;99.90;;;;;;4965410;28;20408;-77
2021/04/25 00:23:51;;;;;;;2.03;1.35;;;6.40;99.90;;;;;;4924158;28;20416;-78
2021/04/25 00:26:17;;;;;;;1.83;1.50;;;6.40;99.90;;;;;;4939505;28;20416;-78
2021/04/25 00:28:42;;;;;;;1.80;1.63;;;6.30;99.90;;;;;;4945643;28;20476;-79
2021/04/25 00:31:08;;;;;;;1.47;1.37;;;6.20;99.90;;;;;;4943054;28;20417;-77
2021/04/25 00:33:34;;;;;;;1.85;1.52;;;6.10;99.90;;;;;;4941046;28;20426;-79
2021/04/25 00:36:00;;;;;;;3.33;1.80;;;6.10;99.90;;;;;;4935103;28;20452;-79
2021/04/25 00:38:25;;;;;;;1.90;1.50;;;6.10;99.90;;;;;;4923079;28;20449;-79
2021/04/25 00:40:51;;;;;;;2.27;1.60;;;6.10;99.90;;;;;;4940837;28;20412;-79
2021/04/25 00:43:17;;;;;;;3.50;2.00;;;6.10;99.90;;;;;;4942756;28;20437;-79
2021/04/25 00:45:42;;;;;;;2.30;2.10;;;6.00;99.90;;;;;;4924377;28;20476;-79
2021/04/25 00:48:08;;;;;;;2.10;1.90;;;5.90;99.90;;;;;;4908354;28;20432;-79
2021/04/25 00:50:34;;;;;;;3.33;1.77;;;5.80;99.90;;;;;;4932371;28;20415;-79
2021/04/25 00:52:59;;;;;;;2.40;2.10;;;5.80;99.90;;;;;;4943239;28;20908;-79
2021/04/25 00:55:28;;;;;;;3.03;2.08;;;5.80;99.90;;;;;;4948180;28;20413;-78
2021/04/25 00:57:55;;;;;;;2.50;2.20;;;5.70;99.90;;;;;;4925083;28;20422;-78
2021/04/25 01:00:21;;;;;;;2.10;1.85;;;5.60;99.90;;;;;;4944788;28;20647;-79
2021/04/25 01:02:46;;;;;;;3.65;2.05;;;5.60;99.90;;;;;;4921477;28;20429;-79
2021/04/25 01:05:13;;;;;;;3.22;2.30;;;5.50;99.90;;;;;;4913097;28;20413;-79
2021/04/25 01:07:38;;;;;;;2.10;1.90;;;5.40;99.90;;;;;;4908366;28;20447;-78
2021/04/25 01:10:05;;;;;;;1.85;1.75;;;5.40;99.90;;;;;;4940649;28;20466;-79
2021/04/25 01:12:31;;;;;;;2.95;1.90;;;5.40;99.90;;;;;;4889936;28;20997;-79
2021/04/25 01:14:56;;;;;;;2.05;1.90;;;5.30;99.90;;;;;;4925307;28;20428;-79
2021/04/25 01:17:22;;;;;;;1.95;1.83;;;5.20;99.90;;;;;;4945539;28;20435;-78
2021/04/25 01:19:48;;;;;;;2.37;1.80;;;5.10;99.90;;;;;;4913259;28;20423;-80
2021/04/25 01:22:13;;;;;;;3.30;2.33;;;5.10;99.90;;;;;;4912103;28;21874;-79
2021/04/25 01:24:39;;;;;;;2.17;1.83;;;5.00;99.90;;;;;;4938047;28;20505;-78
2021/04/25 01:27:05;;;;;;;4.00;2.10;;;4.90;99.90;;;;;;4954800;28;21419;-78
2021/04/25 01:29:31;;;;;;;2.23;2.00;;;4.90;99.90;;;;;;4908517;28;20762;-78
2021/04/25 01:31:56;;;;;;;2.00;1.80;;;4.80;99.90;;;;;;4942755;28;20414;-79
2021/04/25 01:34:22;;;;;;;2.67;1.83;;;4.80;99.90;;;;;;4928387;28;20429;-78
2021/04/25 01:36:48;;;;;;;2.70;1.90;;;4.80;99.90;;;;;;4926732;28;20406;-78
2021/04/25 01:39:13;;;;;;;4.40;1.90;;;4.70;99.90;;;;;;4938651;28;20413;-78
2021/04/25 01:41:39;;;;;;;3.00;1.90;;;4.50;99.90;;;;;;4928809;29;20463;-78
2021/04/25 01:44:04;;;;;;;2.40;2.07;;;4.50;99.90;;;;;;4912718;28;20409;-77
2021/04/25 01:46:30;;;;;;;2.47;1.90;;;4.50;99.90;;;;;;4914288;28;20414;-78
2021/04/25 01:48:56;;;;;;;3.25;2.22;;;4.40;99.90;;;;;;4944136;28;21193;-79
2021/04/25 01:51:21;;;;;;;2.10;1.80;;;4.40;99.90;;;;;;4948351;28;20419;-78
2021/04/25 01:53:47;;;;;;;3.53;2.05;;;4.40;99.90;;;;;;4937628;28;20404;-78
2021/04/25 01:56:13;;;;;;;4.07;2.20;;;4.40;99.90;;;;;;4930025;28;20429;-78
2021/04/25 01:58:38;;;;;;;2.30;1.70;;;4.30;99.90;;;;;;4930068;29;20418;-78
2021/04/25 02:01:04;;;;;;;2.67;1.80;;;4.30;99.90;;;;;;4929902;28;20404;-78
2021/04/25 02:03:30;;;;;;;1.87;1.77;;;4.30;99.90;;;;;;4930669;28;20422;-78
2021/04/25 02:05:55;;;;;;;2.60;1.90;;;4.20;99.90;;;;;;4942719;28;20412;-78
2021/04/25 02:08:21;;;;;;;2.15;1.70;;;4.20;99.90;;;;;;4913103;28;20415;-78
2021/04/25 02:10:47;;;;;;;1.97;1.77;;;4.20;99.90;;;;;;4936240;28;20408;-79
2021/04/25 02:13:13;;;;;;;2.60;1.90;;;4.20;99.90;;;;;;4930267;28;20436;-78
2021/04/25 02:15:39;;;;;;;1.50;1.40;;;4.10;99.90;;;;;;4908313;28;20449;-78
2021/04/25 02:18:05;;;;;;;1.58;1.48;;;4.10;99.90;;;;;;4921722;28;20414;-79
2021/04/25 02:20:31;;;;;;;2.00;1.80;;;4.10;99.90;;;;;;4942997;28;20448;-78
2021/04/25 02:22:57;;;;;;;2.63;1.83;;;4.10;99.90;;;;;;4931098;28;20421;-78
2021/04/25 02:25:22;;;;;;;2.90;1.77;;;4.00;99.90;;;;;;4945533;28;20448;-78
2021/04/25 02:27:48;;;;;;;1.60;1.50;;;4.00;99.90;;;;;;4943939;28;20478;-78
2021/04/25 02:30:20;;;;;;;1.88;1.52;;;4.00;99.90;;;;;;4929498;28;21084;-78
2021/04/25 02:32:47;;;;;;;1.50;1.40;;;4.00;99.90;;;;;;4929943;28;20433;-78
2021/04/25 02:35:13;;;;;;;1.77;1.58;;;4.00;99.90;;;;;;4954195;28;20412;-78
2021/04/25 02:37:39;;;;;;;1.48;1.27;;;3.90;99.90;;;;;;4934188;28;20412;-78
2021/04/25 02:40:09;;;;;;;1.90;1.50;;;3.80;99.90;;;;;;4931300;28;20947;-78
2021/04/25 02:42:34;;;;;;;2.00;1.50;;;3.70;99.90;;;;;;4920708;28;20432;-78
2021/04/25 02:45:00;;;;;;;2.08;1.50;;;3.70;99.90;;;;;;4947445;28;20405;-78
2021/04/25 02:47:26;;;;;;;1.98;1.65;;;3.70;99.90;;;;;;4927157;28;20408;-78
2021/04/25 02:49:52;;;;;;;2.33;1.50;;;3.70;99.90;;;;;;4914795;28;20400;-78
2021/04/25 02:52:17;;;;;;;1.50;1.40;;;3.60;99.90;;;;;;4930010;28;20419;-78
2021/04/25 02:54:43;;;;;;;1.50;1.40;;;3.60;99.90;;;;;;4945315;28;20426;-78
2021/04/25 02:57:08;;;;;;;3.90;1.60;;;3.60;99.90;;;;;;4933762;28;20967;-79
2021/04/25 02:59:34;;;;;;;1.50;1.40;;;3.60;99.90;;;;;;4935432;28;20407;-78
2021/04/25 03:02:00;;;;;;;1.37;1.27;;;3.50;99.90;;;;;;4912834;29;20406;-78
2021/04/25 03:04:25;;;;;;;1.53;1.43;;;3.50;99.90;;;;;;4943086;28;20410;-78
2021/04/25 03:06:51;;;;;;;2.10;1.58;;;3.50;99.90;;;;;;4947773;28;20422;-78
2021/04/25 03:09:17;;;;;;;1.50;1.40;;;3.60;99.90;;;;;;4948981;28;20404;-78
2021/04/25 03:11:42;;;;;;;1.50;1.40;;;3.60;99.90;;;;;;4949216;28;21293;-77
2021/04/25 03:14:08;;;;;;;1.55;1.45;;;3.50;99.90;;;;;;4941859;28;20410;-78
2021/04/25 03:16:34;;;;;;;1.53;1.43;;;3.40;99.90;;;;;;4930227;28;20751;-77
2021/04/25 03:18:59;;;;;;;1.33;1.23;;;3.30;99.90;;;;;;4916137;28;20447;-78
2021/04/25 03:21:25;;;;;;;1.45;1.35;;;3.30;99.90;;;;;;4945761;28;20890;-79
2021/04/25 03:23:50;;;;;;;1.50;1.40;;;3.20;99.90;;;;;;4927649;28;20419;-78
2021/04/25 03:26:16;;;;;;;1.50;1.40;;;3.20;99.90;;;;;;4929921;29;20409;-78
2021/04/25 03:28:42;;;;;;;1.17;1.10;;;3.20;99.90;;;;;;4936127;28;20401;-77
2021/04/25 03:31:07;;;;;;;1.83;1.40;;;3.00;99.90;;;;;;4939395;28;20388;-79
2021/04/25 03:33:33;;;;;;;1.50;1.40;;;3.00;99.90;;;;;;4941610;28;20410;-78
2021/04/25 03:35:59;;;;;;;1.55;1.45;;;3.00;99.90;;;;;;4943467;28;20465;-77
2021/04/25 03:38:27;;;;;;;1.47;1.37;;;2.90;99.90;;;;;;4928624;29;20399;-79
2021/04/25 03:40:54;;;;;;;1.60;1.50;;;2.90;99.90;;;;;;4956087;28;20443;-78
2021/04/25 03:43:20;;;;;;;1.60;1.50;;;2.80;99.90;;;;;;4929454;28;20406;-78
2021/04/25 03:45:46;;;;;;;2.33;1.50;;;2.80;99.90;;;;;;4925660;28;20416;-78
2021/04/25 03:48:11;;;;;;;1.60;1.50;;;2.80;99.90;;;;;;4912450;28;20406;-78
2021/04/25 03:50:37;;;;;;;1.70;1.60;;;2.70;99.90;;;;;;4921962;28;20404;-78
2021/04/25 03:53:03;;;;;;;1.45;1.35;;;2.60;99.90;;;;;;4922702;28;20401;-77
2021/04/25 03:55:28;;;;;;;1.30;1.20;;;2.60;99.90;;;;;;4934288;28;20785;-78
2021/04/25 03:57:54;;;;;;;1.90;1.70;;;2.70;99.90;;;;;;4940056;28;20406;-77
2021/04/25 04:00:20;;;;;;;1.73;1.52;;;2.70;99.90;;;;;;4943983;28;20426;-77
2021/04/25 04:02:46;;;;;;;1.90;1.48;;;2.60;99.90;;;;;;4927373;28;20952;-78
2021/04/25 04:05:12;;;;;;;2.20;1.43;;;2.70;99.90;;;;;;4910981;28;20745;-77
2021/04/25 04:07:37;;;;;;;1.50;1.30;;;2.60;99.90;;;;;;4925158;28;20431;-78
2021/04/25 04:10:04;;;;;;;1.80;1.58;;;2.60;99.90;;;;;;4928559;28;20457;-77
2021/04/25 04:12:29;;;;;;;1.60;1.50;;;2.50;99.90;;;;;;4929242;29;20406;-77
2021/04/25 04:14:55;;;;;;;1.90;1.40;;;2.50;99.90;;;;;;4926125;28;20402;-78
2021/04/25 04:17:20;;;;;;;1.50;1.40;;;2.50;99.90;;;;;;4949243;28;20414;-78
2021/04/25 04:19:46;;;;;;;1.60;1.50;;;2.60;99.90;;;;;;4948102;28;20410;-78
2021/04/25 04:22:12;;;;;;;1.42;1.33;;;2.60;99.90;;;;;;4927553;28;20489;-77
2021/04/25 04:24:38;;;;;;;1.50;1.40;;;2.50;99.90;;;;;;4941892;28;20419;-78
2021/04/25 04:27:03;;;;;;;1.90;1.60;;;2.50;99.90;;;;;;4928698;28;20417;-78
2021/04/25 04:29:29;;;;;;;1.70;1.50;;;2.50;99.90;;;;;;4944890;28;21054;-78
2021/04/25 04:31:55;;;;;;;1.48;1.33;;;2.50;99.90;;;;;;4937820;28;20408;-78
2021/04/25 04:34:21;;;;;;;1.77;1.67;;;2.50;99.90;;;;;;4946598;28;22099;-78
2021/04/25 04:36:46;;;;;;;2.35;1.52;;;2.60;99.90;;;;;;4948335;28;20395;-78
2021/04/25 04:39:12;;;;;;;1.43;1.33;;;2.60;99.90;;;;;;4947889;28;20796;-78
2021/04/25 04:41:38;;;;;;;1.50;1.40;;;2.70;99.90;;;;;;4931467;28;20817;-77
2021/04/25 04:44:04;;;;;;;1.58;1.48;;;2.70;99.90;;;;;;4913751;28;20446;-77
2021/04/25 04:46:29;;;;;;;1.70;1.60;;;2.70;99.90;;;;;;4946606;28;20425;-78
2021/04/25 04:48:55;;;;;;;1.50;1.40;;;2.70;99.90;;;;;;4929644;28;20417;-77
2021/04/25 04:51:21;;;;;;;2.33;1.60;;;2.70;99.90;;;;;;4931501;28;20429;-78
2021/04/25 04:53:46;;;;;;;2.88;1.75;;;2.90;99.90;;;;;;4919987;28;20440;-80
2021/04/25 04:56:12;;;;;;;1.50;1.40;;;3.00;99.90;;;;;;4947729;28;20906;-79
2021/04/25 04:58:38;;;;;;;1.50;1.40;;;3.00;99.90;;;;;;4953031;28;20882;-79
2021/04/25 05:01:03;;;;;;;1.40;1.30;;;3.10;99.90;;;;;;4948177;28;20419;-79
2021/04/25 05:03:29;;;;;;;1.67;1.57;;;3.10;99.90;;;;;;4961495;28;20737;-79
2021/04/25 05:05:55;;;;;;;1.50;1.40;;;3.10;99.90;;;;;;4934692;28;20478;-79
2021/04/25 05:08:20;;;;;;;1.90;1.57;;;3.20;99.90;;;;;;4928936;28;20418;-79
2021/04/25 05:10:46;;;;;;;1.60;1.50;;;3.40;99.90;;;;;;4948813;28;20398;-79
2021/04/25 05:13:12;;;;;;;1.50;1.40;;;3.50;99.90;;;;;;4946274;28;20837;-79
2021/04/25 05:15:38;;;;;;;2.50;1.27;;;3.70;99.90;;;;;;4950704;28;20438;-79
2021/04/25 05:18:04;;;;;;;1.48;1.38;;;3.90;99.90;;;;;;4942952;28;20401;-79
2021/04/25 05:20:29;;;;;;;2.03;1.58;;;4.00;99.90;;;;;;4955248;28;20413;-79
2021/04/25 05:22:56;;;;;;;2.00;1.70;;;4.10;99.90;;;;;;4932574;29;20399;-79
2021/04/25 05:25:21;;;;;;;1.60;1.50;;;4.30;99.90;;;;;;4938900;28;20454;-79
2021/04/25 05:27:47;;;;;;;2.28;1.70;;;4.50;99.90;;;;;;4919509;28;22582;-79
2021/04/25 05:30:13;;;;;;;3.07;1.73;;;4.70;99.90;;;;;;4935374;28;20417;-78
2021/04/25 05:32:39;;;;;;;1.83;1.60;;;4.80;99.90;;;;;;4958277;28;20441;-80
2021/04/25 05:35:05;;;;;;;1.73;1.63;;;5.00;99.90;;;;;;4942285;29;20423;-80
2021/04/25 05:37:31;;;;;;;1.97;1.80;;;5.10;99.90;;;;;;4955931;28;20520;-80
2021/04/25 05:39:57;;;;;;;4.87;2.30;;;5.20;99.90;;;;;;4935740;29;20468;-80
2021/04/25 05:42:22;;;;;;;2.58;2.38;;;5.40;99.90;;;;;;4930300;28;20430;-80
2021/04/25 05:44:48;;;;;;;4.30;2.53;;;5.60;99.90;;;;;;4968671;28;21173;-81
2021/04/25 05:47:14;;;;;;;2.10;1.90;;;5.60;99.90;;;;;;4974206;28;20415;-81
2021/04/25 05:49:40;;;;;;;2.47;2.28;;;5.50;99.90;;;;;;4948196;28;20437;-81
2021/04/25 05:52:06;;;;;;;3.10;2.50;;;5.80;99.90;;;;;;4959991;28;20424;-80
2021/04/25 05:54:32;;;;;;;3.67;2.30;;;5.80;99.90;;;;;;4939596;28;20486;-80
2021/04/25 05:56:59;;;;;;;2.58;2.00;;;5.90;99.90;;;;;;4975881;28;20401;-81
2021/04/25 05:59:25;;;;;;;2.90;1.92;;;5.90;99.90;;;;;;4959362;28;20414;-80
2021/04/25 06:01:51;;;;;;;2.85;2.10;;;6.00;99.90;;;;;;4924101;28;20406;-80
2021/04/25 06:04:17;;;;;;;2.35;2.15;;;6.20;99.90;;;;;;4945441;28;20681;-80
2021/04/25 06:06:43;;;;;;;4.60;2.60;;;6.30;99.90;;;;;;4943132;28;20456;-80
2021/04/25 06:09:09;;;;;;;2.85;2.20;;;6.60;99.90;;;;;;4937659;29;20410;-80
2021/04/25 06:11:35;;;;;;;2.58;2.33;;;6.60;99.90;;;;;;4937669;28;20416;-80
2021/04/25 06:14:01;;;;;;;3.90;2.35;;;6.80;99.90;;;;;;4949728;28;20404;-80
2021/04/25 06:16:27;;;;;;;2.47;2.00;;;7.00;99.90;;;;;;4949618;28;20959;-80
2021/04/25 06:18:53;;;;;;;2.22;2.03;;;7.10;99.90;;;;;;4955082;28;20525;-81
2021/04/25 06:21:21;;;;;;;3.00;2.08;;;7.20;99.90;;;;;;4939314;28;20429;-81
2021/04/25 06:23:47;;;;;;;2.30;1.95;;;7.50;99.90;;;;;;4959557;28;20410;-80
2021/04/25 06:26:14;;;;;;;2.65;1.73;;;7.50;99.90;;;;;;4957653;28;20415;-80
2021/04/25 06:28:40;;;;;;;2.00;1.80;;;7.40;99.90;;;;;;4940700;28;20407;-80
2021/04/25 06:31:06;;;;;;;2.17;1.98;;;7.60;99.90;;;;;;4958518;28;20571;-80
2021/04/25 06:33:34;;;;;;;3.43;3.10;;;7.70;99.90;;;;;;4931081;28;20416;-79
2021/04/25 06:36:00;;;;;;;3.45;3.13;;;7.70;99.90;;;;;;4936183;28;20427;-81
2021/04/25 06:38:26;;;;;;;2.53;2.33;;;7.80;99.90;;;;;;4932927;28;20443;-79
2021/04/25 06:40:52;;;;;;;1.92;1.77;;;7.90;99.90;;;;;;4957950;28;20418;-81
2021/04/25 06:43:18;;;;;;;1.77;1.67;;;7.70;99.90;;;;;;4952001;28;20405;-80
2021/04/25 06:45:46;;;;;;;2.28;1.70;;;7.50;99.90;;;;;;4914817;29;20416;-80
2021/04/25 06:48:12;;;;;;;1.92;1.50;;;7.80;99.90;;;;;;4962411;28;20424;-81
2021/04/25 06:50:38;;;;;;;2.45;1.60;;;7.90;99.90;;;;;;4961082;28;20459;-81
2021/04/25 06:53:04;;;;;;;2.27;1.30;;;7.70;99.90;;;;;;4966667;28;20422;-81
2021/04/25 06:55:30;;;;;;;2.03;1.50;;;7.60;99.90;;;;;;4955196;28;20424;-80
2021/04/25 06:57:56;;;;;;;1.10;1.10;;;7.50;99.90;;;;;;4948498;28;20803;-81
2021/04/25 07:00:23;;;;;;;2.65;1.30;;;7.60;99.90;;;;;;4942168;28;20416;-80
2021/04/25 07:02:49;;;;;;;1.10;1.10;;;7.80;99.90;;;;;;4952640;28;20484;-81
2021/04/25 07:05:15;;;;;;;1.30;1.20;;;8.00;99.90;;;;;;4922493;28;20416;-81
2021/04/25 07:07:44;;;;;;;0.90;0.90;;;8.10;99.90;;;;;;4969047;28;20455;-79
2021/04/25 07:10:11;;;;;;;1.00;0.90;;;8.20;99.90;;;;;;4923498;28;20415;-80
2021/04/25 07:12:37;;;;;;;0.82;0.82;;;8.30;99.90;;;;;;4916197;28;20861;-80
2021/04/25 07:15:05;;;;;;;0.90;0.90;;;8.20;99.90;;;;;;4941104;28;20443;-79
2021/04/25 07:17:31;;;;;;;1.10;0.90;;;8.20;99.90;;;;;;4898175;29;20467;-81
2021/04/25 07:19:57;;;;;;;0.80;0.80;;;8.30;99.90;;;;;;4975129;28;20423;-80
2021/04/25 07:22:50;;;;;;;0.90;0.90;;;8.30;99.90;;;;;;4905677;28;20413;-81
2021/04/25 07:25:52;;;;;;;0.80;0.80;;;8.30;99.70;;;;;;4933461;28;20867;-80
2021/04/25 07:34:06;;;;;;;1.02;0.98;;;8.40;99.70;;;;;;4966233;28;20441;-81
2021/04/25 07:37:49;;;;;;;0.90;0.90;;;8.40;99.40;;;;;;4932320;28;20880;-80
2021/04/25 07:40:51;;;;;;;1.08;1.00;;;8.60;95.70;;;;;;4935521;28;20437;-81
2021/04/25 07:48:01;;;;;;;0.73;0.73;;;8.60;93.20;;;;;;4889062;29;20425;-80
2021/04/25 07:54:49;;;;;;;2.45;0.90;;;8.90;92.50;;;;;;4906616;29;20427;-80
2021/04/25 07:58:00;;;;;;;0.68;0.68;;;8.70;92.50;;;;;;4945154;28;20506;-81
2021/04/25 08:00:25;;;;;;;0.80;0.80;;;9.10;93.20;;;;;;4926076;28;20419;-76
2021/04/25 08:02:51;;;;;;;0.90;0.90;;;9.40;91.50;;;;;;4959046;28;20794;-80
2021/04/25 08:05:17;;;;;;;0.85;0.82;;;9.70;90.60;;;;;;4931209;29;20422;-79
2021/04/25 08:07:48;;;;;;;0.80;0.70;;;9.60;86.50;;;;;;4914328;29;20931;-80
2021/04/25 08:10:37;;;;;;;0.80;0.80;;;9.50;83.60;;;;;;4967687;28;20408;-82
2021/04/25 08:16:06;;;;;;;0.65;0.65;;;9.70;85.00;;;;;;4966673;28;20464;-77
2021/04/25 08:18:32;;;;;;;4.50;0.93;;;10.10;89.80;;;;;;4942998;28;20927;-78
2021/04/25 08:20:57;;;;;;;0.90;0.90;;;10.30;80.60;;;;;;4974468;28;20450;-78
2021/04/25 08:23:23;;;;;;;0.77;0.77;;;10.50;85.80;;;;;;4941087;28;20761;-78
2021/04/25 08:25:49;;;;;;;0.73;0.73;;;10.40;79.60;;;;;;4956046;28;20423;-80
2021/04/25 08:28:14;;;;;;;0.60;0.60;;;10.20;78.30;;;;;;4938670;28;20406;-81
2021/04/25 08:30:40;;;;;;;1.10;0.80;;;10.20;80.60;;;;;;4963524;28;20404;-81
2021/04/25 08:33:07;;;;;;;0.90;0.73;;;10.40;78.80;;;;;;4975277;28;20408;-80
2021/04/25 08:35:32;;;;;;;1.00;1.00;;;10.50;76.60;;;;;;4962219;28;20422;-80
2021/04/25 08:37:58;;;;;;;1.10;1.00;;;10.50;74.50;;;;;;4941829;28;20491;-80
2021/04/25 08:40:24;;;;;;;0.90;0.90;;;10.40;74.90;;;;;;4958368;28;20407;-79
2021/04/25 08:42:52;;;;;;;0.90;0.90;;;10.50;75.40;;;;;;4971333;28;20404;-79
2021/04/25 08:45:18;;;;;;;0.90;0.90;;;10.80;79.60;;;;;;4947526;28;20504;-79
2021/04/25 08:48:12;;;;;;;1.02;0.80;;;10.70;74.30;;;;;;4951010;28;20487;-80
2021/04/25 08:50:46;;;;;;;0.80;0.80;;;10.10;72.00;;;;;;4986581;28;20419;-80
2021/04/25 08:53:12;;;;;;;0.97;0.90;;;10.10;78.50;;;;;;4972367;28;20800;-82
2021/04/25 08:55:38;;;;;;;0.68;0.68;;;10.80;79.30;;;;;;4952390;28;20439;-82
2021/04/25 08:58:04;;;;;;;4.17;1.00;;;11.40;78.70;;;;;;4961681;28;20388;-81
2021/04/25 09:00:30;;;;;;;1.20;0.90;;;11.60;73.80;;;;;;4981020;28;20419;-82
2021/04/25 09:02:56;;;;;;;0.90;0.90;;;11.90;75.50;;;;;;4963484;28;20772;-84
2021/04/25 09:05:22;;;;;;;0.90;0.90;;;12.00;73.20;;;;;;4947221;28;20820;-81
2021/04/25 09:08:01;;;;;;;1.00;0.95;;;11.90;73.30;;;;;;4933266;28;20902;-81
2021/04/25 09:10:37;;;;;;;1.83;1.00;;;12.00;73.70;;;;;;4957279;28;20420;-80
2021/04/25 09:13:24;;;;;;;1.20;1.10;;;12.10;72.20;;;;;;4964249;28;20416;-81
2021/04/25 09:15:52;;;;;;;0.88;0.88;;;12.50;72.70;;;;;;4973688;28;20416;-80
2021/04/25 09:18:18;;;;;;;0.73;0.73;;;12.70;67.40;;;;;;4983453;28;21105;-87
2021/04/25 09:20:50;;;;;;;1.27;1.00;;;12.80;71.50;;;;;;4978454;28;20403;-81
2021/04/25 09:23:21;;;;;;;1.30;0.90;;;12.90;71.10;;;;;;4958112;28;20439;-88
2021/04/25 09:25:54;;;;;;;2.20;0.90;;;13.10;72.50;;;;;;4975778;28;20412;-83
2021/04/25 09:28:20;;;;;;;0.88;0.88;;;13.20;74.30;;;;;;4976139;28;20400;-87
2021/04/25 09:31:05;;;;;;;1.00;1.00;;;13.20;71.90;;;;;;4976912;28;20389;-82
2021/04/25 09:33:53;;;;;;;0.83;0.83;;;13.30;73.60;;;;;;4988578;28;20408;-84
2021/04/25 09:36:20;;;;;;;0.85;0.85;;;13.10;67.90;;;;;;4979214;28;20480;-88
2021/04/25 09:38:46;;;;;;;1.30;1.10;;;13.10;70.80;;;;;;4979783;28;20469;-88
2021/04/25 09:41:23;;;;;;;0.88;0.88;;;13.30;72.40;;;;;;4962401;28;20423;-87
2021/04/25 09:43:49;;;;;;;0.80;0.80;;;13.20;66.30;;;;;;4945639;28;20421;-88
2021/04/25 09:46:15;;;;;;;0.90;0.90;;;12.80;70.40;;;;;;4957072;28;20386;-86
2021/04/25 09:48:42;;;;;;;0.90;0.90;;;12.80;67.20;;;;;;4959871;28;20406;-88
2021/04/25 09:51:09;;;;;;;1.20;1.00;;;13.00;69.70;;;;;;4957148;28;20397;-84
2021/04/25 09:53:42;;;;;;;1.02;1.02;;;13.10;69.10;;;;;;4975888;28;20414;-88
2021/04/25 09:56:08;;;;;;;2.60;1.05;;;13.00;66.00;;;;;;4950146;28;20839;-86
2021/04/25 09:58:35;;;;;;;1.70;1.30;;;12.60;68.30;;;;;;4951895;28;20397;-82
2021/04/25 10:01:01;;;;;;;1.10;1.10;;;12.40;67.90;;;;;;4965939;28;20399;-80
2021/04/25 10:04:14;;;;;;;3.28;1.20;;;11.60;67.00;;;;;;4940623;28;20404;-80
2021/04/25 10:07:28;;;;;;;1.17;1.10;;;11.10;67.30;;;;;;4948626;28;20420;-80
2021/04/25 10:14:21;;;;;;;1.02;0.98;;;11.10;74.70;;;;;;5004001;23;20411;-80
2021/04/25 10:16:47;;;;;;;0.97;0.97;;;11.60;76.70;;;;;;4961976;28;20566;-81
2021/04/25 10:19:13;;;;;;;1.05;1.02;;;11.80;77.70;;;;;;4966481;28;20460;-80
2021/04/25 10:21:40;;;;;;;1.45;1.10;;;11.80;77.50;;;;;;4965486;28;20388;-82
2021/04/25 10:24:06;;;;;;;1.42;1.10;;;11.80;78.30;;;;;;4980498;28;20939;-81
2021/04/25 10:26:54;;;;;;;1.13;1.13;;;11.90;79.20;;;;;;4983004;28;20719;-80
2021/04/25 10:29:35;;;;;;;0.98;0.98;;;12.10;78.80;;;;;;4966045;28;20415;-84
2021/04/25 10:32:03;;;;;;;1.15;1.08;;;12.20;79.20;;;;;;4948704;28;20410;-79
2021/04/25 10:34:29;;;;;;;2.67;1.25;;;12.10;81.00;;;;;;4930999;28;20408;-82
2021/04/25 10:36:57;;;;;;;1.30;1.20;;;12.00;78.30;;;;;;4945983;28;20429;-79
2021/04/25 10:39:47;;;;;;;1.27;1.17;;;12.00;80.40;;;;;;4921496;28;20408;-79
2021/04/25 10:42:17;;;;;;;1.05;1.00;;;12.00;80.80;;;;;;4927683;28;20405;-84
2021/04/25 10:45:07;;;;;;;1.77;1.25;;;12.00;81.40;;;;;;4968440;28;20420;-79
2021/04/25 10:47:37;;;;;;;1.80;1.30;;;12.20;83.00;;;;;;4966276;28;20468;-80
2021/04/25 10:50:15;;;;;;;1.23;1.10;;;12.40;83.90;;;;;;4937946;28;20400;-84
2021/04/25 10:52:43;;;;;;;1.63;1.20;;;12.50;81.80;;;;;;4974769;28;20416;-80
2021/04/25 10:55:11;;;;;;;1.33;1.23;;;12.20;81.30;;;;;;4954996;28;20483;-80
2021/04/25 10:57:52;;;;;;;1.33;1.13;;;12.50;84.30;;;;;;4978485;28;20443;-82
2021/04/25 11:03:00;;;;;;;1.40;1.10;;;13.30;82.30;;;;;;4965434;28;20408;-79
2021/04/25 11:05:37;;;;;;;1.00;1.00;;;13.60;83.40;;;;;;4903873;28;20926;-79
2021/04/25 11:08:04;;;;;;;0.98;0.98;;;14.10;81.60;;;;;;4978176;28;20437;-81
2021/04/25 11:10:50;;;;;;;1.30;1.20;;;14.30;81.60;;;;;;4943319;28;20410;-83
2021/04/25 11:13:34;;;;;;;1.40;1.10;;;14.50;78.80;;;;;;4957597;28;20417;-83
2021/04/25 11:16:13;;;;;;;1.00;1.00;;;14.50;78.30;;;;;;4965533;28;20418;-80
2021/04/25 11:18:42;;;;;;;1.33;1.23;;;14.50;80.10;;;;;;4937984;28;20783;-80
2021/04/25 11:24:01;;;;;;;1.40;1.30;;;15.30;77.90;;;;;;4955326;28;20406;-82
2021/04/25 11:26:36;;;;;;;3.17;1.08;;;15.40;77.90;;;;;;4951494;28;20420;-79
2021/04/25 11:29:03;;;;;;;1.58;1.30;;;15.60;78.20;;;;;;4947780;28;20438;-81
2021/04/25 11:31:47;;;;;;;2.23;1.70;;;16.10;75.80;;;;;;4965760;28;20433;-81
2021/04/25 11:34:34;;;;;;;3.20;1.67;;;16.50;76.70;;;;;;4954727;28;20424;-82
2021/04/25 11:37:24;;;;;;;1.30;1.20;;;16.50;73.80;;;;;;4960847;28;20396;-81
2021/04/25 11:39:52;;;;;;;1.33;1.23;;;16.40;72.30;;;;;;4946760;28;20411;-81
2021/04/25 11:42:39;;;;;;;1.10;1.10;;;16.40;71.30;;;;;;4962793;28;20488;-80
2021/04/25 11:45:18;;;;;;;1.40;1.30;;;15.60;72.60;;;;;;4942502;28;20407;-86
2021/04/25 11:47:54;;;;;;;1.27;1.17;;;14.40;71.00;;;;;;4977023;28;20454;-82
2021/04/25 11:50:20;;;;;;;1.38;1.20;;;14.50;73.50;;;;;;4935265;28;20543;-83
2021/04/25 11:52:46;;;;;;;1.15;1.10;;;14.40;72.00;;;;;;4903880;28;20406;-80
2021/04/25 11:55:16;;;;;;;3.80;1.67;;;13.20;67.90;;;;;;4942659;28;20429;-82
2021/04/25 11:57:43;;;;;;;1.48;1.38;;;13.80;71.60;;;;;;4970798;28;20412;-81
2021/04/25 12:00:14;;;;;;;1.58;1.48;;;14.00;70.60;;;;;;4961642;28;20452;-81
2021/04/25 12:02:54;;;;;;;1.10;1.10;;;14.30;73.90;;;;;;4962457;28;20412;-80
2021/04/25 12:05:24;;;;;;;1.77;1.17;;;14.10;72.10;;;;;;4961173;28;20405;-80
2021/04/25 12:08:04;;;;;;;1.17;1.13;;;14.60;72.60;;;;;;4954769;28;20408;-80
2021/04/25 12:10:38;;;;;;;1.80;1.50;;;14.70;68.10;;;;;;4958609;28;20416;-81
2021/04/25 12:13:19;;;;;;;2.40;1.50;;;14.70;69.10;;;;;;4921145;28;20421;-81
2021/04/25 12:15:55;;;;;;;1.07;1.07;;;15.10;68.00;;;;;;4971894;28;20425;-81
2021/04/25 12:18:25;;;;;;;1.20;1.10;;;15.20;65.20;;;;;;4939303;28;20437;-81
2021/04/25 12:20:53;;;;;;;1.43;1.33;;;14.80;64.80;;;;;;4933088;28;20423;-81
2021/04/25 12:23:26;;;;;;;1.10;1.10;;;14.40;66.40;;;;;;4957739;28;20412;-81
2021/04/25 12:25:53;;;;;;;1.50;1.40;;;13.90;68.40;;;;;;4927413;28;20416;-81
2021/04/25 12:28:19;;;;;;;1.30;1.20;;;13.20;66.70;;;;;;4953132;28;20469;-81
2021/04/25 12:30:45;;;;;;;1.40;1.20;;;13.10;70.90;;;;;;4952102;28;20412;-81
2021/04/25 12:33:15;;;;;;;1.30;1.20;;;13.30;68.30;;;;;;4943361;28;20500;-80
2021/04/25 12:35:48;;;;;;;1.52;1.30;;;13.20;68.60;;;;;;4919752;28;20462;-81
2021/04/25 12:38:33;;;;;;;1.40;1.30;;;12.80;67.20;;;;;;4966235;28;20406;-80
2021/04/25 12:41:13;;;;;;;2.83;1.55;;;12.00;71.60;;;;;;4948506;28;20420;-79
2021/04/25 12:43:47;;;;;;;1.83;1.50;;;12.30;70.60;;;;;;4967282;28;20419;-80
2021/04/25 12:46:20;;;;;;;1.20;1.20;;;12.60;71.50;;;;;;4942248;28;20942;-82
2021/04/25 12:49:00;;;;;;;1.50;1.40;;;12.80;69.10;;;;;;4952476;28;20425;-79
2021/04/25 12:51:46;;;;;;;1.52;1.42;;;13.10;68.30;;;;;;4953544;28;20493;-80
2021/04/25 12:54:13;;;;;;;1.40;1.20;;;13.10;67.80;;;;;;4926284;28;20416;-79
2021/04/25 12:56:39;;;;;;;1.10;1.10;;;13.00;69.40;;;;;;4968493;28;20453;-82
2021/04/25 12:59:11;;;;;;;2.28;1.45;;;13.00;67.90;;;;;;4967457;28;20459;-81
2021/04/25 13:01:41;;;;;;;1.40;1.30;;;12.90;67.50;;;;;;4934892;28;20433;-81
2021/04/25 13:04:27;;;;;;;1.33;1.23;;;12.70;67.20;;;;;;4940097;28;20447;-80
2021/04/25 13:07:23;;;;;;;1.30;1.20;;;12.50;67.40;;;;;;4971803;28;20396;-80
2021/04/25 13:09:55;;;;;;;1.23;1.15;;;12.50;67.90;;;;;;4951425;28;20798;-79
2021/04/25 13:12:21;;;;;;;1.30;1.20;;;12.20;69.90;;;;;;4951864;28;20453;-80
2021/04/25 13:15:09;;;;;;;1.10;1.10;;;12.00;66.90;;;;;;4950756;28;20437;-80
2021/04/25 13:17:39;;;;;;;0.93;0.93;;;11.70;67.50;;;;;;4950300;28;20498;-78
2021/04/25 13:20:19;;;;;;;1.13;1.05;;;11.80;64.20;;;;;;4949679;28;20408;-82
2021/04/25 13:23:03;;;;;;;1.17;1.13;;;11.80;63.40;;;;;;4966296;28;20407;-84
2021/04/25 13:25:31;;;;;;;1.10;1.10;;;12.10;61.40;;;;;;4935747;28;20441;-79
2021/04/25 13:27:59;;;;;;;1.30;1.15;;;11.80;63.50;;;;;;4953190;28;20448;-79
2021/04/25 13:30:25;;;;;;;1.30;1.20;;;11.80;62.90;;;;;;4935072;28;20767;-79
2021/04/25 13:32:51;;;;;;;1.40;1.23;;;11.50;64.00;;;;;;4933348;28;20475;-79